sensor_id;sensor_type;location;lat;lon;timestamp;P1;durP1;ratioP1;P2;durP2;ratioP2
9844;SDS011;4961;50.782;6.080;2022-08-18T00:01:08;21.30;;;19.00;;
9844;SDS011;4961;50.782;6.080;2022-08-18T00:03:40;22.80;;;19.87;;
9844;SDS011;4961;50.782;6.080;2022-08-18T00:06:24;21.97;;;19.73;;
9844;SDS011;4961;50.782;6.080;2022-08-18T00:08:55;21.23;;;19.20;;
9844;SDS011;4961;50.782;6.080;2022-08-18T00:11:25;20.73;;;18.73;;
9844;SDS011;4961;50.782;6.080;2022-08-18T00:14:07;22.53;;;20.23;;
9844;SDS011;4961;50.782;6.080;2022-08-18T00:16:47;25.07;;;21.90;;
9844;SDS011;4961;50.782;6.080;2022-08-18T00:19:17;24.53;;;22.07;;
9844;SDS011;4961;50.782;6.080;2022-08-18T00:22:06;24.10;;;21.70;;
9844;SDS011;4961;50.782;6.080;2022-08-18T00:24:41;23.73;;;21.00;;
9844;SDS011;4961;50.782;6.080;2022-08-18T00:27:15;22.10;;;19.93;;
9844;SDS011;4961;50.782;6.080;2022-08-18T00:29:49;23.00;;;20.70;;
9844;SDS011;4961;50.782;6.080;2022-08-18T00:32:19;23.50;;;21.10;;
9844;SDS011;4961;50.782;6.080;2022-08-18T00:34:49;21.03;;;18.97;;
9844;SDS011;4961;50.782;6.080;2022-08-18T00:37:18;22.30;;;19.90;;
9844;SDS011;4961;50.782;6.080;2022-08-18T00:39:49;21.47;;;19.37;;
9844;SDS011;4961;50.782;6.080;2022-08-18T00:42:21;23.13;;;20.83;;
9844;SDS011;4961;50.782;6.080;2022-08-18T00:44:57;21.97;;;19.67;;
9844;SDS011;4961;50.782;6.080;2022-08-18T00:47:27;22.03;;;19.77;;
9844;SDS011;4961;50.782;6.080;2022-08-18T00:50:07;22.33;;;20.23;;
9844;SDS011;4961;50.782;6.080;2022-08-18T00:52:42;23.23;;;20.97;;
9844;SDS011;4961;50.782;6.080;2022-08-18T00:55:14;23.00;;;20.80;;
9844;SDS011;4961;50.782;6.080;2022-08-18T00:57:46;21.73;;;19.70;;
9844;SDS011;4961;50.782;6.080;2022-08-18T01:00:17;23.83;;;21.37;;
9844;SDS011;4961;50.782;6.080;2022-08-18T01:02:47;22.77;;;20.40;;
9844;SDS011;4961;50.782;6.080;2022-08-18T01:05:20;23.00;;;20.67;;
9844;SDS011;4961;50.782;6.080;2022-08-18T01:07:52;25.37;;;22.83;;
9844;SDS011;4961;50.782;6.080;2022-08-18T01:10:21;22.93;;;20.80;;
9844;SDS011;4961;50.782;6.080;2022-08-18T01:12:53;24.73;;;22.13;;
9844;SDS011;4961;50.782;6.080;2022-08-18T01:15:23;25.13;;;22.53;;
9844;SDS011;4961;50.782;6.080;2022-08-18T01:17:57;24.17;;;21.70;;
9844;SDS011;4961;50.782;6.080;2022-08-18T01:20:46;24.97;;;22.33;;
9844;SDS011;4961;50.782;6.080;2022-08-18T01:23:40;24.20;;;21.70;;
9844;SDS011;4961;50.782;6.080;2022-08-18T01:26:09;25.33;;;22.63;;
9844;SDS011;4961;50.782;6.080;2022-08-18T01:31:57;24.57;;;21.93;;
9844;SDS011;4961;50.782;6.080;2022-08-18T01:34:26;27.80;;;24.73;;
9844;SDS011;4961;50.782;6.080;2022-08-18T01:36:55;29.07;;;25.50;;
9844;SDS011;4961;50.782;6.080;2022-08-18T01:39:25;29.07;;;25.97;;
9844;SDS011;4961;50.782;6.080;2022-08-18T01:42:14;26.00;;;23.07;;
9844;SDS011;4961;50.782;6.080;2022-08-18T01:44:43;25.23;;;22.73;;
9844;SDS011;4961;50.782;6.080;2022-08-18T01:47:13;26.13;;;23.53;;
9844;SDS011;4961;50.782;6.080;2022-08-18T01:49:42;23.83;;;21.33;;
9844;SDS011;4961;50.782;6.080;2022-08-18T01:52:13;25.90;;;23.17;;
9844;SDS011;4961;50.782;6.080;2022-08-18T01:54:46;28.03;;;24.50;;
9844;SDS011;4961;50.782;6.080;2022-08-18T01:57:16;26.50;;;23.73;;
9844;SDS011;4961;50.782;6.080;2022-08-18T01:59:45;24.07;;;21.60;;
9844;SDS011;4961;50.782;6.080;2022-08-18T02:02:19;25.83;;;23.23;;
9844;SDS011;4961;50.782;6.080;2022-08-18T02:04:50;25.53;;;22.93;;
9844;SDS011;4961;50.782;6.080;2022-08-18T02:07:21;26.10;;;23.43;;
9844;SDS011;4961;50.782;6.080;2022-08-18T02:10:03;25.30;;;22.80;;
9844;SDS011;4961;50.782;6.080;2022-08-18T02:12:37;26.47;;;23.67;;
9844;SDS011;4961;50.782;6.080;2022-08-18T02:15:06;24.63;;;22.27;;
9844;SDS011;4961;50.782;6.080;2022-08-18T02:17:36;26.70;;;24.00;;
9844;SDS011;4961;50.782;6.080;2022-08-18T02:20:05;27.73;;;24.83;;
9844;SDS011;4961;50.782;6.080;2022-08-18T02:22:34;25.57;;;22.97;;
9844;SDS011;4961;50.782;6.080;2022-08-18T02:25:05;26.60;;;23.77;;
9844;SDS011;4961;50.782;6.080;2022-08-18T02:27:34;27.60;;;24.67;;
9844;SDS011;4961;50.782;6.080;2022-08-18T02:30:04;27.27;;;24.40;;
9844;SDS011;4961;50.782;6.080;2022-08-18T02:32:34;26.30;;;23.50;;
9844;SDS011;4961;50.782;6.080;2022-08-18T02:35:03;27.03;;;24.23;;
9844;SDS011;4961;50.782;6.080;2022-08-18T02:37:36;28.40;;;25.40;;
9844;SDS011;4961;50.782;6.080;2022-08-18T02:40:12;31.37;;;26.00;;
9844;SDS011;4961;50.782;6.080;2022-08-18T02:42:42;26.97;;;24.13;;
9844;SDS011;4961;50.782;6.080;2022-08-18T02:45:11;29.50;;;26.37;;
9844;SDS011;4961;50.782;6.080;2022-08-18T02:47:40;28.93;;;24.90;;
9844;SDS011;4961;50.782;6.080;2022-08-18T02:50:10;27.93;;;25.03;;
9844;SDS011;4961;50.782;6.080;2022-08-18T02:52:39;27.87;;;24.93;;
9844;SDS011;4961;50.782;6.080;2022-08-18T02:55:08;27.23;;;24.40;;
9844;SDS011;4961;50.782;6.080;2022-08-18T02:57:41;27.27;;;24.27;;
9844;SDS011;4961;50.782;6.080;2022-08-18T03:00:10;28.47;;;25.57;;
9844;SDS011;4961;50.782;6.080;2022-08-18T03:02:45;28.17;;;25.13;;
9844;SDS011;4961;50.782;6.080;2022-08-18T03:05:13;27.07;;;23.77;;
9844;SDS011;4961;50.782;6.080;2022-08-18T03:07:42;26.50;;;23.70;;
9844;SDS011;4961;50.782;6.080;2022-08-18T03:10:11;29.63;;;26.53;;
9844;SDS011;4961;50.782;6.080;2022-08-18T03:13:00;28.23;;;25.27;;
9844;SDS011;4961;50.782;6.080;2022-08-18T03:15:29;27.70;;;24.83;;
9844;SDS011;4961;50.782;6.080;2022-08-18T03:17:57;26.10;;;23.50;;
9844;SDS011;4961;50.782;6.080;2022-08-18T03:20:26;27.50;;;24.60;;
9844;SDS011;4961;50.782;6.080;2022-08-18T03:22:56;28.47;;;25.20;;
9844;SDS011;4961;50.782;6.080;2022-08-18T03:25:31;29.07;;;24.93;;
9844;SDS011;4961;50.782;6.080;2022-08-18T03:28:02;27.37;;;24.47;;
9844;SDS011;4961;50.782;6.080;2022-08-18T03:30:32;27.83;;;24.57;;
9844;SDS011;4961;50.782;6.080;2022-08-18T03:33:00;26.80;;;24.00;;
9844;SDS011;4961;50.782;6.080;2022-08-18T03:35:29;26.03;;;23.37;;
9844;SDS011;4961;50.782;6.080;2022-08-18T03:37:57;27.87;;;22.80;;
9844;SDS011;4961;50.782;6.080;2022-08-18T03:40:26;26.63;;;23.87;;
9844;SDS011;4961;50.782;6.080;2022-08-18T03:42:54;31.53;;;25.70;;
9844;SDS011;4961;50.782;6.080;2022-08-18T03:45:28;32.33;;;25.63;;
9844;SDS011;4961;50.782;6.080;2022-08-18T03:47:57;28.33;;;25.33;;
9844;SDS011;4961;50.782;6.080;2022-08-18T03:50:26;29.63;;;25.73;;
9844;SDS011;4961;50.782;6.080;2022-08-18T03:52:55;32.40;;;25.90;;
9844;SDS011;4961;50.782;6.080;2022-08-18T03:55:25;29.13;;;26.07;;
9844;SDS011;4961;50.782;6.080;2022-08-18T03:57:57;31.27;;;27.27;;
9844;SDS011;4961;50.782;6.080;2022-08-18T04:00:30;34.27;;;28.87;;
9844;SDS011;4961;50.782;6.080;2022-08-18T04:03:01;31.87;;;27.23;;
9844;SDS011;4961;50.782;6.080;2022-08-18T04:05:29;32.97;;;27.77;;
9844;SDS011;4961;50.782;6.080;2022-08-18T04:07:58;33.93;;;28.43;;
9844;SDS011;4961;50.782;6.080;2022-08-18T04:10:26;31.87;;;28.53;;
9844;SDS011;4961;50.782;6.080;2022-08-18T04:12:54;32.83;;;28.33;;
9844;SDS011;4961;50.782;6.080;2022-08-18T04:15:23;35.10;;;28.43;;
9844;SDS011;4961;50.782;6.080;2022-08-18T04:17:52;30.23;;;26.73;;
9844;SDS011;4961;50.782;6.080;2022-08-18T04:20:29;29.33;;;26.10;;
9844;SDS011;4961;50.782;6.080;2022-08-18T04:22:59;29.30;;;26.03;;
9844;SDS011;4961;50.782;6.080;2022-08-18T04:25:27;29.47;;;26.17;;
9844;SDS011;4961;50.782;6.080;2022-08-18T04:27:59;32.60;;;27.73;;
9844;SDS011;4961;50.782;6.080;2022-08-18T04:30:29;35.00;;;28.10;;
9844;SDS011;4961;50.782;6.080;2022-08-18T04:33:01;31.37;;;27.97;;
9844;SDS011;4961;50.782;6.080;2022-08-18T04:35:31;36.27;;;29.07;;
9844;SDS011;4961;50.782;6.080;2022-08-18T04:38:00;33.83;;;29.17;;
9844;SDS011;4961;50.782;6.080;2022-08-18T04:40:28;34.30;;;29.33;;
9844;SDS011;4961;50.782;6.080;2022-08-18T04:42:59;35.50;;;30.03;;
9844;SDS011;4961;50.782;6.080;2022-08-18T04:45:28;42.80;;;33.90;;
9844;SDS011;4961;50.782;6.080;2022-08-18T04:47:56;41.90;;;32.83;;
9844;SDS011;4961;50.782;6.080;2022-08-18T04:50:26;49.00;;;36.30;;
9844;SDS011;4961;50.782;6.080;2022-08-18T04:52:55;45.97;;;34.63;;
9844;SDS011;4961;50.782;6.080;2022-08-18T04:55:44;49.70;;;36.17;;
9844;SDS011;4961;50.782;6.080;2022-08-18T04:58:13;44.30;;;34.23;;
9844;SDS011;4961;50.782;6.080;2022-08-18T05:00:44;47.13;;;34.67;;
9844;SDS011;4961;50.782;6.080;2022-08-18T05:03:12;40.73;;;32.37;;
9844;SDS011;4961;50.782;6.080;2022-08-18T05:05:43;42.97;;;32.77;;
9844;SDS011;4961;50.782;6.080;2022-08-18T05:08:16;44.93;;;34.37;;
9844;SDS011;4961;50.782;6.080;2022-08-18T05:10:51;42.40;;;33.00;;
9844;SDS011;4961;50.782;6.080;2022-08-18T05:13:25;41.50;;;31.57;;
9844;SDS011;4961;50.782;6.080;2022-08-18T05:15:54;41.87;;;32.50;;
9844;SDS011;4961;50.782;6.080;2022-08-18T05:18:36;44.10;;;32.37;;
9844;SDS011;4961;50.782;6.080;2022-08-18T05:21:09;40.03;;;31.47;;
9844;SDS011;4961;50.782;6.080;2022-08-18T05:23:41;40.03;;;31.33;;
9844;SDS011;4961;50.782;6.080;2022-08-18T05:26:11;39.63;;;30.77;;
9844;SDS011;4961;50.782;6.080;2022-08-18T05:28:41;39.93;;;31.23;;
9844;SDS011;4961;50.782;6.080;2022-08-18T05:31:11;40.50;;;31.53;;
9844;SDS011;4961;50.782;6.080;2022-08-18T05:33:43;39.83;;;30.33;;
9844;SDS011;4961;50.782;6.080;2022-08-18T05:36:18;40.80;;;30.23;;
9844;SDS011;4961;50.782;6.080;2022-08-18T05:38:57;39.33;;;30.80;;
9844;SDS011;4961;50.782;6.080;2022-08-18T05:41:33;41.13;;;31.67;;
9844;SDS011;4961;50.782;6.080;2022-08-18T05:44:05;38.17;;;28.53;;
9844;SDS011;4961;50.782;6.080;2022-08-18T05:46:37;43.23;;;31.03;;
9844;SDS011;4961;50.782;6.080;2022-08-18T05:49:10;41.67;;;31.17;;
9844;SDS011;4961;50.782;6.080;2022-08-18T05:51:43;42.57;;;31.10;;
9844;SDS011;4961;50.782;6.080;2022-08-18T05:54:14;43.50;;;30.37;;
9844;SDS011;4961;50.782;6.080;2022-08-18T05:57:03;39.03;;;29.83;;
9844;SDS011;4961;50.782;6.080;2022-08-18T05:59:35;40.00;;;30.57;;
9844;SDS011;4961;50.782;6.080;2022-08-18T06:02:07;37.23;;;29.33;;
9844;SDS011;4961;50.782;6.080;2022-08-18T06:04:41;45.13;;;32.30;;
9844;SDS011;4961;50.782;6.080;2022-08-18T06:07:16;40.13;;;29.00;;
9844;SDS011;4961;50.782;6.080;2022-08-18T06:09:49;41.40;;;30.50;;
9844;SDS011;4961;50.782;6.080;2022-08-18T06:12:22;40.27;;;29.33;;
9844;SDS011;4961;50.782;6.080;2022-08-18T06:14:57;37.00;;;28.43;;
9844;SDS011;4961;50.782;6.080;2022-08-18T06:17:38;44.00;;;30.50;;
9844;SDS011;4961;50.782;6.080;2022-08-18T06:20:27;44.83;;;30.20;;
9844;SDS011;4961;50.782;6.080;2022-08-18T06:23:05;43.70;;;31.27;;
9844;SDS011;4961;50.782;6.080;2022-08-18T06:25:51;47.47;;;30.97;;
9844;SDS011;4961;50.782;6.080;2022-08-18T06:28:31;45.77;;;31.77;;
9844;SDS011;4961;50.782;6.080;2022-08-18T06:31:12;45.70;;;31.53;;
9844;SDS011;4961;50.782;6.080;2022-08-18T06:33:52;49.30;;;32.30;;
9844;SDS011;4961;50.782;6.080;2022-08-18T06:36:33;46.13;;;31.90;;
9844;SDS011;4961;50.782;6.080;2022-08-18T06:39:10;49.27;;;31.67;;
9844;SDS011;4961;50.782;6.080;2022-08-18T06:41:48;47.87;;;31.07;;
9844;SDS011;4961;50.782;6.080;2022-08-18T06:44:20;47.43;;;31.50;;
9844;SDS011;4961;50.782;6.080;2022-08-18T06:46:58;43.83;;;30.93;;
9844;SDS011;4961;50.782;6.080;2022-08-18T06:49:37;45.53;;;32.17;;
9844;SDS011;4961;50.782;6.080;2022-08-18T06:52:22;46.60;;;31.17;;
9844;SDS011;4961;50.782;6.080;2022-08-18T06:54:54;44.93;;;29.67;;
9844;SDS011;4961;50.782;6.080;2022-08-18T06:57:25;44.30;;;30.07;;
9844;SDS011;4961;50.782;6.080;2022-08-18T07:00:02;44.57;;;30.50;;
9844;SDS011;4961;50.782;6.080;2022-08-18T07:02:39;43.50;;;30.27;;
9844;SDS011;4961;50.782;6.080;2022-08-18T07:05:16;44.10;;;29.70;;
9844;SDS011;4961;50.782;6.080;2022-08-18T07:08:02;43.30;;;29.87;;
9844;SDS011;4961;50.782;6.080;2022-08-18T07:10:46;42.17;;;28.03;;
9844;SDS011;4961;50.782;6.080;2022-08-18T07:13:17;43.83;;;29.57;;
9844;SDS011;4961;50.782;6.080;2022-08-18T07:15:48;40.77;;;28.50;;
9844;SDS011;4961;50.782;6.080;2022-08-18T07:18:21;44.20;;;28.60;;
9844;SDS011;4961;50.782;6.080;2022-08-18T07:20:53;39.67;;;28.40;;
9844;SDS011;4961;50.782;6.080;2022-08-18T07:23:25;38.87;;;26.60;;
9844;SDS011;4961;50.782;6.080;2022-08-18T07:26:02;40.67;;;26.63;;
9844;SDS011;4961;50.782;6.080;2022-08-18T07:28:37;41.33;;;26.50;;
9844;SDS011;4961;50.782;6.080;2022-08-18T07:31:08;36.37;;;26.47;;
9844;SDS011;4961;50.782;6.080;2022-08-18T07:33:50;39.37;;;26.27;;
9844;SDS011;4961;50.782;6.080;2022-08-18T07:36:30;38.07;;;25.60;;
9844;SDS011;4961;50.782;6.080;2022-08-18T07:39:10;37.07;;;25.97;;
9844;SDS011;4961;50.782;6.080;2022-08-18T07:41:51;40.97;;;27.50;;
9844;SDS011;4961;50.782;6.080;2022-08-18T07:44:36;33.63;;;23.30;;
9844;SDS011;4961;50.782;6.080;2022-08-18T07:47:12;32.30;;;22.00;;
9844;SDS011;4961;50.782;6.080;2022-08-18T07:49:45;31.13;;;22.63;;
9844;SDS011;4961;50.782;6.080;2022-08-18T07:52:36;32.47;;;23.00;;
9844;SDS011;4961;50.782;6.080;2022-08-18T07:55:15;32.63;;;22.63;;
9844;SDS011;4961;50.782;6.080;2022-08-18T07:57:58;29.83;;;21.70;;
9844;SDS011;4961;50.782;6.080;2022-08-18T08:00:42;29.87;;;22.57;;
9844;SDS011;4961;50.782;6.080;2022-08-18T08:03:29;28.63;;;20.97;;
9844;SDS011;4961;50.782;6.080;2022-08-18T08:06:07;29.43;;;21.33;;
9844;SDS011;4961;50.782;6.080;2022-08-18T08:08:42;30.03;;;21.80;;
9844;SDS011;4961;50.782;6.080;2022-08-18T08:11:20;28.50;;;21.67;;
9844;SDS011;4961;50.782;6.080;2022-08-18T08:14:10;29.40;;;20.90;;
9844;SDS011;4961;50.782;6.080;2022-08-18T08:17:06;27.83;;;20.93;;
9844;SDS011;4961;50.782;6.080;2022-08-18T08:19:49;27.20;;;20.43;;
9844;SDS011;4961;50.782;6.080;2022-08-18T08:22:28;26.53;;;20.07;;
9844;SDS011;4961;50.782;6.080;2022-08-18T08:25:03;29.47;;;21.77;;
9844;SDS011;4961;50.782;6.080;2022-08-18T08:28:02;28.03;;;21.53;;
9844;SDS011;4961;50.782;6.080;2022-08-18T08:30:38;29.70;;;21.60;;
9844;SDS011;4961;50.782;6.080;2022-08-18T08:33:17;25.73;;;20.37;;
9844;SDS011;4961;50.782;6.080;2022-08-18T08:35:52;25.90;;;19.63;;
9844;SDS011;4961;50.782;6.080;2022-08-18T08:38:26;27.87;;;20.80;;
9844;SDS011;4961;50.782;6.080;2022-08-18T08:41:10;24.80;;;19.87;;
9844;SDS011;4961;50.782;6.080;2022-08-18T08:43:46;25.03;;;19.93;;
9844;SDS011;4961;50.782;6.080;2022-08-18T08:46:21;28.50;;;21.73;;
9844;SDS011;4961;50.782;6.080;2022-08-18T08:48:55;24.37;;;19.10;;
9844;SDS011;4961;50.782;6.080;2022-08-18T08:51:31;28.57;;;21.43;;
9844;SDS011;4961;50.782;6.080;2022-08-18T08:54:05;28.63;;;20.60;;
9844;SDS011;4961;50.782;6.080;2022-08-18T08:56:41;27.30;;;21.60;;
9844;SDS011;4961;50.782;6.080;2022-08-18T08:59:16;29.97;;;22.50;;
9844;SDS011;4961;50.782;6.080;2022-08-18T09:01:57;26.87;;;20.10;;
9844;SDS011;4961;50.782;6.080;2022-08-18T09:05:07;28.60;;;21.27;;
9844;SDS011;4961;50.782;6.080;2022-08-18T09:07:41;28.03;;;20.67;;
9844;SDS011;4961;50.782;6.080;2022-08-18T09:10:23;30.93;;;23.10;;
9844;SDS011;4961;50.782;6.080;2022-08-18T09:13:40;32.20;;;22.30;;
9844;SDS011;4961;50.782;6.080;2022-08-18T09:16:34;28.23;;;20.93;;
9844;SDS011;4961;50.782;6.080;2022-08-18T09:19:18;31.23;;;23.27;;
9844;SDS011;4961;50.782;6.080;2022-08-18T09:22:03;34.37;;;24.67;;
9844;SDS011;4961;50.782;6.080;2022-08-18T09:24:44;32.70;;;24.33;;
9844;SDS011;4961;50.782;6.080;2022-08-18T09:27:23;30.40;;;23.00;;
9844;SDS011;4961;50.782;6.080;2022-08-18T09:30:36;31.40;;;23.93;;
9844;SDS011;4961;50.782;6.080;2022-08-18T09:33:13;29.27;;;22.17;;
9844;SDS011;4961;50.782;6.080;2022-08-18T09:35:57;27.10;;;21.60;;
9844;SDS011;4961;50.782;6.080;2022-08-18T09:38:36;30.53;;;23.87;;
9844;SDS011;4961;50.782;6.080;2022-08-18T09:41:33;27.30;;;21.13;;
9844;SDS011;4961;50.782;6.080;2022-08-18T09:44:55;27.03;;;21.80;;
9844;SDS011;4961;50.782;6.080;2022-08-18T09:50:50;27.47;;;21.37;;
9844;SDS011;4961;50.782;6.080;2022-08-18T09:59:50;35.00;;;25.87;;
9844;SDS011;4961;50.782;6.080;2022-08-18T10:05:40;33.50;;;25.40;;
9844;SDS011;4961;50.782;6.080;2022-08-18T10:08:43;30.67;;;24.20;;
9844;SDS011;4961;50.782;6.080;2022-08-18T10:11:55;30.67;;;23.53;;
9844;SDS011;4961;50.782;6.080;2022-08-18T10:18:15;31.20;;;23.30;;
9844;SDS011;4961;50.782;6.080;2022-08-18T10:21:06;32.77;;;23.60;;
9844;SDS011;4961;50.782;6.080;2022-08-18T10:23:43;31.73;;;23.70;;
9844;SDS011;4961;50.782;6.080;2022-08-18T10:26:58;27.30;;;21.60;;
9844;SDS011;4961;50.782;6.080;2022-08-18T10:29:42;28.43;;;22.53;;
9844;SDS011;4961;50.782;6.080;2022-08-18T10:32:23;27.03;;;21.33;;
9844;SDS011;4961;50.782;6.080;2022-08-18T10:35:05;27.20;;;23.03;;
9844;SDS011;4961;50.782;6.080;2022-08-18T10:38:20;31.93;;;24.10;;
9844;SDS011;4961;50.782;6.080;2022-08-18T10:40:59;28.37;;;23.03;;
9844;SDS011;4961;50.782;6.080;2022-08-18T10:43:43;29.00;;;23.63;;
9844;SDS011;4961;50.782;6.080;2022-08-18T10:46:34;28.80;;;23.30;;
9844;SDS011;4961;50.782;6.080;2022-08-18T10:49:16;32.43;;;24.27;;
9844;SDS011;4961;50.782;6.080;2022-08-18T10:51:54;30.17;;;24.60;;
9844;SDS011;4961;50.782;6.080;2022-08-18T10:54:52;30.97;;;24.90;;
9844;SDS011;4961;50.782;6.080;2022-08-18T10:57:38;28.50;;;23.73;;
9844;SDS011;4961;50.782;6.080;2022-08-18T11:00:34;25.63;;;22.10;;
9844;SDS011;4961;50.782;6.080;2022-08-18T11:03:24;24.17;;;20.97;;
9844;SDS011;4961;50.782;6.080;2022-08-18T11:06:24;25.20;;;20.80;;
9844;SDS011;4961;50.782;6.080;2022-08-18T11:08:54;24.50;;;21.77;;
9844;SDS011;4961;50.782;6.080;2022-08-18T11:11:26;25.70;;;21.70;;
9844;SDS011;4961;50.782;6.080;2022-08-18T11:14:14;23.40;;;21.00;;
9844;SDS011;4961;50.782;6.080;2022-08-18T11:17:10;24.20;;;19.83;;
9844;SDS011;4961;50.782;6.080;2022-08-18T11:19:49;20.77;;;18.67;;
9844;SDS011;4961;50.782;6.080;2022-08-18T11:22:21;19.87;;;17.87;;
9844;SDS011;4961;50.782;6.080;2022-08-18T11:25:17;20.20;;;18.23;;
9844;SDS011;4961;50.782;6.080;2022-08-18T11:27:50;20.43;;;18.23;;
9844;SDS011;4961;50.782;6.080;2022-08-18T11:30:19;17.53;;;15.83;;
9844;SDS011;4961;50.782;6.080;2022-08-18T11:32:57;16.90;;;15.20;;
9844;SDS011;4961;50.782;6.080;2022-08-18T11:35:29;17.60;;;15.80;;
9844;SDS011;4961;50.782;6.080;2022-08-18T11:38:00;19.87;;;17.97;;
9844;SDS011;4961;50.782;6.080;2022-08-18T11:40:32;19.87;;;17.97;;
9844;SDS011;4961;50.782;6.080;2022-08-18T11:43:24;20.97;;;18.93;;
9844;SDS011;4961;50.782;6.080;2022-08-18T11:46:11;19.60;;;17.80;;
9844;SDS011;4961;50.782;6.080;2022-08-18T11:49:11;19.47;;;17.40;;
9844;SDS011;4961;50.782;6.080;2022-08-18T11:51:53;18.47;;;16.67;;
9844;SDS011;4961;50.782;6.080;2022-08-18T11:54:33;18.37;;;16.37;;
9844;SDS011;4961;50.782;6.080;2022-08-18T11:57:26;20.37;;;18.37;;
9844;SDS011;4961;50.782;6.080;2022-08-18T12:03:20;17.37;;;15.67;;
9844;SDS011;4961;50.782;6.080;2022-08-18T12:05:58;17.37;;;15.77;;
9844;SDS011;4961;50.782;6.080;2022-08-18T12:08:53;17.40;;;15.87;;
9844;SDS011;4961;50.782;6.080;2022-08-18T12:11:25;19.60;;;17.60;;
9844;SDS011;4961;50.782;6.080;2022-08-18T12:13:57;18.47;;;16.67;;
9844;SDS011;4961;50.782;6.080;2022-08-18T12:16:48;19.10;;;17.17;;
9844;SDS011;4961;50.782;6.080;2022-08-18T12:19:37;20.23;;;18.13;;
9844;SDS011;4961;50.782;6.080;2022-08-18T12:22:13;19.37;;;17.53;;
9844;SDS011;4961;50.782;6.080;2022-08-18T12:24:43;18.00;;;16.30;;
9844;SDS011;4961;50.782;6.080;2022-08-18T12:27:14;20.13;;;18.20;;
9844;SDS011;4961;50.782;6.080;2022-08-18T12:29:47;19.90;;;17.90;;
9844;SDS011;4961;50.782;6.080;2022-08-18T12:32:16;19.73;;;17.83;;
9844;SDS011;4961;50.782;6.080;2022-08-18T12:35:06;18.97;;;17.07;;
9844;SDS011;4961;50.782;6.080;2022-08-18T12:37:40;17.07;;;15.30;;
9844;SDS011;4961;50.782;6.080;2022-08-18T12:40:29;18.00;;;16.23;;
9844;SDS011;4961;50.782;6.080;2022-08-18T12:42:59;16.67;;;15.07;;
9844;SDS011;4961;50.782;6.080;2022-08-18T12:45:28;16.60;;;15.10;;
9844;SDS011;4961;50.782;6.080;2022-08-18T12:47:57;17.97;;;15.93;;
9844;SDS011;4961;50.782;6.080;2022-08-18T12:50:30;17.80;;;16.00;;
9844;SDS011;4961;50.782;6.080;2022-08-18T12:53:06;16.60;;;14.90;;
9844;SDS011;4961;50.782;6.080;2022-08-18T12:55:37;17.57;;;15.53;;
9844;SDS011;4961;50.782;6.080;2022-08-18T12:58:10;15.73;;;14.17;;
9844;SDS011;4961;50.782;6.080;2022-08-18T13:00:40;17.10;;;15.50;;
9844;SDS011;4961;50.782;6.080;2022-08-18T13:03:09;16.77;;;15.07;;
9844;SDS011;4961;50.782;6.080;2022-08-18T13:05:37;15.33;;;13.87;;
9844;SDS011;4961;50.782;6.080;2022-08-18T13:08:08;15.90;;;14.43;;
9844;SDS011;4961;50.782;6.080;2022-08-18T13:10:59;15.17;;;13.57;;
9844;SDS011;4961;50.782;6.080;2022-08-18T13:13:46;14.30;;;13.10;;
9844;SDS011;4961;50.782;6.080;2022-08-18T13:16:22;14.00;;;12.80;;
9844;SDS011;4961;50.782;6.080;2022-08-18T13:19:04;16.13;;;14.73;;
9844;SDS011;4961;50.782;6.080;2022-08-18T13:21:36;13.30;;;12.20;;
9844;SDS011;4961;50.782;6.080;2022-08-18T13:24:09;14.80;;;13.60;;
9844;SDS011;4961;50.782;6.080;2022-08-18T13:26:39;14.13;;;12.73;;
9844;SDS011;4961;50.782;6.080;2022-08-18T13:29:11;12.77;;;11.67;;
9844;SDS011;4961;50.782;6.080;2022-08-18T13:31:44;13.87;;;12.43;;
9844;SDS011;4961;50.782;6.080;2022-08-18T13:34:23;13.07;;;11.97;;
9844;SDS011;4961;50.782;6.080;2022-08-18T13:36:55;11.73;;;10.80;;
9844;SDS011;4961;50.782;6.080;2022-08-18T13:39:25;12.60;;;11.37;;
9844;SDS011;4961;50.782;6.080;2022-08-18T13:41:59;13.37;;;12.23;;
9844;SDS011;4961;50.782;6.080;2022-08-18T13:44:49;11.23;;;10.13;;
9844;SDS011;4961;50.782;6.080;2022-08-18T13:47:22;9.47;;;8.77;;
9844;SDS011;4961;50.782;6.080;2022-08-18T13:49:55;9.07;;;8.37;;
9844;SDS011;4961;50.782;6.080;2022-08-18T13:52:25;9.43;;;8.73;;
9844;SDS011;4961;50.782;6.080;2022-08-18T13:55:12;8.43;;;7.83;;
9844;SDS011;4961;50.782;6.080;2022-08-18T13:57:43;8.53;;;7.67;;
9844;SDS011;4961;50.782;6.080;2022-08-18T14:00:16;8.47;;;7.77;;
9844;SDS011;4961;50.782;6.080;2022-08-18T14:02:56;6.80;;;6.30;;
9844;SDS011;4961;50.782;6.080;2022-08-18T14:05:30;9.47;;;8.77;;
9844;SDS011;4961;50.782;6.080;2022-08-18T14:08:17;10.97;;;9.83;;
9844;SDS011;4961;50.782;6.080;2022-08-18T14:10:47;9.63;;;8.83;;
9844;SDS011;4961;50.782;6.080;2022-08-18T14:13:18;9.57;;;8.67;;
9844;SDS011;4961;50.782;6.080;2022-08-18T14:15:52;7.47;;;6.77;;
9844;SDS011;4961;50.782;6.080;2022-08-18T14:18:26;6.47;;;6.07;;
9844;SDS011;4961;50.782;6.080;2022-08-18T14:20:58;7.17;;;6.60;;
9844;SDS011;4961;50.782;6.080;2022-08-18T14:23:48;7.07;;;6.57;;
9844;SDS011;4961;50.782;6.080;2022-08-18T14:26:42;5.37;;;5.07;;
9844;SDS011;4961;50.782;6.080;2022-08-18T14:29:17;6.30;;;5.70;;
9844;SDS011;4961;50.782;6.080;2022-08-18T14:32:06;6.40;;;5.80;;
9844;SDS011;4961;50.782;6.080;2022-08-18T14:34:43;7.17;;;6.67;;
9844;SDS011;4961;50.782;6.080;2022-08-18T14:37:16;5.67;;;5.17;;
9844;SDS011;4961;50.782;6.080;2022-08-18T14:39:46;5.67;;;5.27;;
9844;SDS011;4961;50.782;6.080;2022-08-18T14:42:18;5.73;;;5.33;;
9844;SDS011;4961;50.782;6.080;2022-08-18T14:45:07;4.77;;;4.47;;
9844;SDS011;4961;50.782;6.080;2022-08-18T14:47:57;5.63;;;5.20;;
9844;SDS011;4961;50.782;6.080;2022-08-18T14:50:25;5.67;;;5.30;;
9844;SDS011;4961;50.782;6.080;2022-08-18T14:52:55;4.97;;;4.33;;
9844;SDS011;4961;50.782;6.080;2022-08-18T14:55:24;5.00;;;4.80;;
9844;SDS011;4961;50.782;6.080;2022-08-18T14:57:56;5.93;;;5.53;;
9844;SDS011;4961;50.782;6.080;2022-08-18T15:00:26;4.67;;;4.43;;
9844;SDS011;4961;50.782;6.080;2022-08-18T15:02:55;5.60;;;5.10;;
9844;SDS011;4961;50.782;6.080;2022-08-18T15:05:26;4.33;;;4.00;;
9844;SDS011;4961;50.782;6.080;2022-08-18T15:07:59;3.90;;;3.70;;
9844;SDS011;4961;50.782;6.080;2022-08-18T15:10:29;4.30;;;3.87;;
9844;SDS011;4961;50.782;6.080;2022-08-18T15:13:02;4.67;;;4.47;;
9844;SDS011;4961;50.782;6.080;2022-08-18T15:15:31;4.13;;;3.83;;
9844;SDS011;4961;50.782;6.080;2022-08-18T15:18:17;3.93;;;3.73;;
9844;SDS011;4961;50.782;6.080;2022-08-18T15:20:48;4.40;;;4.13;;
9844;SDS011;4961;50.782;6.080;2022-08-18T15:23:45;5.17;;;4.23;;
9844;SDS011;4961;50.782;6.080;2022-08-18T15:26:45;5.30;;;4.80;;
9844;SDS011;4961;50.782;6.080;2022-08-18T15:29:24;5.40;;;5.07;;
9844;SDS011;4961;50.782;6.080;2022-08-18T15:31:54;4.00;;;3.80;;
9844;SDS011;4961;50.782;6.080;2022-08-18T15:34:35;4.43;;;4.23;;
9844;SDS011;4961;50.782;6.080;2022-08-18T15:37:16;4.30;;;4.00;;
9844;SDS011;4961;50.782;6.080;2022-08-18T15:39:56;4.33;;;4.00;;
9844;SDS011;4961;50.782;6.080;2022-08-18T15:42:28;3.83;;;3.33;;
9844;SDS011;4961;50.782;6.080;2022-08-18T15:45:00;3.47;;;3.27;;
9844;SDS011;4961;50.782;6.080;2022-08-18T15:47:39;3.23;;;3.03;;
9844;SDS011;4961;50.782;6.080;2022-08-18T15:50:08;3.33;;;3.07;;
9844;SDS011;4961;50.782;6.080;2022-08-18T15:52:52;3.63;;;3.43;;
9844;SDS011;4961;50.782;6.080;2022-08-18T15:55:24;3.87;;;3.23;;
9844;SDS011;4961;50.782;6.080;2022-08-18T15:58:01;3.90;;;3.30;;
9844;SDS011;4961;50.782;6.080;2022-08-18T16:00:40;3.47;;;3.10;;
9844;SDS011;4961;50.782;6.080;2022-08-18T16:03:11;3.87;;;3.50;;
9844;SDS011;4961;50.782;6.080;2022-08-18T16:05:45;3.27;;;3.07;;
9844;SDS011;4961;50.782;6.080;2022-08-18T16:08:19;3.20;;;3.07;;
9844;SDS011;4961;50.782;6.080;2022-08-18T16:10:49;4.00;;;3.57;;
9844;SDS011;4961;50.782;6.080;2022-08-18T16:13:18;3.70;;;3.40;;